sensor_id;sensor_type;location;lat;lon;timestamp;pressure;altitude;pressure_sealevel;temperature;humidity
74680;BME280;63211;48.548;2.704;2023-01-16T00:01:06;99057.25;;;17.45;61.78
74680;BME280;63211;48.548;2.704;2023-01-16T00:03:33;99028.25;;;17.29;61.87
74680;BME280;63211;48.548;2.704;2023-01-16T00:05:59;99024.81;;;17.39;62.27
74680;BME280;63211;48.548;2.704;2023-01-16T00:08:26;99020.72;;;17.36;62.60
74680;BME280;63211;48.548;2.704;2023-01-16T00:10:53;99003.81;;;17.34;62.58
74680;BME280;63211;48.548;2.704;2023-01-16T00:13:21;98982.84;;;17.30;62.75
74680;BME280;63211;48.548;2.704;2023-01-16T00:15:49;98973.84;;;17.24;63.05
74680;BME280;63211;48.548;2.704;2023-01-16T00:18:17;98972.25;;;17.33;62.27
74680;BME280;63211;48.548;2.704;2023-01-16T00:20:46;98957.31;;;17.36;61.90
74680;BME280;63211;48.548;2.704;2023-01-16T00:23:12;98935.84;;;17.39;61.02
74680;BME280;63211;48.548;2.704;2023-01-16T00:25:39;98934.00;;;17.45;58.59
74680;BME280;63211;48.548;2.704;2023-01-16T00:28:07;98921.47;;;17.49;56.50
74680;BME280;63211;48.548;2.704;2023-01-16T00:30:35;98905.47;;;17.52;57.11
74680;BME280;63211;48.548;2.704;2023-01-16T00:33:02;98889.69;;;17.55;56.28
74680;BME280;63211;48.548;2.704;2023-01-16T00:35:29;98875.81;;;17.56;56.39
74680;BME280;63211;48.548;2.704;2023-01-16T00:37:56;98852.72;;;17.59;57.93
74680;BME280;63211;48.548;2.704;2023-01-16T00:40:23;98838.81;;;17.55;59.61
74680;BME280;63211;48.548;2.704;2023-01-16T00:42:50;98820.25;;;17.47;60.35
74680;BME280;63211;48.548;2.704;2023-01-16T00:45:17;98806.13;;;17.50;60.20
74680;BME280;63211;48.548;2.704;2023-01-16T00:47:45;98795.78;;;17.47;60.22
74680;BME280;63211;48.548;2.704;2023-01-16T00:50:11;98798.22;;;17.43;60.20
74680;BME280;63211;48.548;2.704;2023-01-16T00:52:38;98772.38;;;17.41;60.50
74680;BME280;63211;48.548;2.704;2023-01-16T00:55:05;98751.16;;;17.38;60.63
74680;BME280;63211;48.548;2.704;2023-01-16T00:57:32;98739.97;;;17.34;60.86
74680;BME280;63211;48.548;2.704;2023-01-16T00:59:58;98729.63;;;17.31;60.98
74680;BME280;63211;48.548;2.704;2023-01-16T01:02:25;98717.91;;;17.31;61.26
74680;BME280;63211;48.548;2.704;2023-01-16T01:04:53;98688.53;;;17.28;61.40
74680;BME280;63211;48.548;2.704;2023-01-16T01:07:20;98674.13;;;17.27;61.32
74680;BME280;63211;48.548;2.704;2023-01-16T01:09:46;98658.63;;;17.28;60.84
74680;BME280;63211;48.548;2.704;2023-01-16T01:12:13;98647.47;;;17.29;59.95
74680;BME280;63211;48.548;2.704;2023-01-16T01:14:40;98625.72;;;17.34;57.42
74680;BME280;63211;48.548;2.704;2023-01-16T01:17:06;98612.16;;;17.39;56.07
74680;BME280;63211;48.548;2.704;2023-01-16T01:19:35;98606.44;;;17.41;55.55
74680;BME280;63211;48.548;2.704;2023-01-16T01:22:03;98597.19;;;17.47;55.03
74680;BME280;63211;48.548;2.704;2023-01-16T01:24:29;98583.56;;;17.47;54.91
74680;BME280;63211;48.548;2.704;2023-01-16T01:26:56;98565.09;;;17.49;52.37
74680;BME280;63211;48.548;2.704;2023-01-16T01:29:22;98560.19;;;17.51;52.76
74680;BME280;63211;48.548;2.704;2023-01-16T01:31:49;98554.47;;;17.52;53.46
74680;BME280;63211;48.548;2.704;2023-01-16T01:34:16;98537.06;;;17.53;57.24
74680;BME280;63211;48.548;2.704;2023-01-16T01:36:42;98519.09;;;17.47;58.10
74680;BME280;63211;48.548;2.704;2023-01-16T01:39:10;98503.34;;;17.44;58.40
74680;BME280;63211;48.548;2.704;2023-01-16T01:41:37;98466.63;;;17.42;58.92
74680;BME280;63211;48.548;2.704;2023-01-16T01:47:00;98455.75;;;17.37;58.70
74680;BME280;63211;48.548;2.704;2023-01-16T01:49:29;98439.69;;;17.35;58.87
74680;BME280;63211;48.548;2.704;2023-01-16T01:51:59;98429.91;;;17.34;59.01
74680;BME280;63211;48.548;2.704;2023-01-16T01:54:31;98416.03;;;17.31;59.06
74680;BME280;63211;48.548;2.704;2023-01-16T01:57:02;98387.47;;;17.28;59.40
74680;BME280;63211;48.548;2.704;2023-01-16T01:59:33;98377.97;;;17.26;59.58
74680;BME280;63211;48.548;2.704;2023-01-16T02:02:03;98357.84;;;17.27;58.72
74680;BME280;63211;48.548;2.704;2023-01-16T02:04:33;98336.88;;;17.32;57.20
74680;BME280;63211;48.548;2.704;2023-01-16T02:07:02;98321.13;;;17.34;55.65
74680;BME280;63211;48.548;2.704;2023-01-16T02:09:32;98307.50;;;17.39;53.23
74680;BME280;63211;48.548;2.704;2023-01-16T02:12:02;98282.47;;;17.42;54.67
74680;BME280;63211;48.548;2.704;2023-01-16T02:14:33;98296.63;;;17.44;54.75
74680;BME280;63211;48.548;2.704;2023-01-16T02:17:05;98277.28;;;17.46;54.92
74680;BME280;63211;48.548;2.704;2023-01-16T02:19:56;98251.69;;;17.47;53.82
74680;BME280;63211;48.548;2.704;2023-01-16T02:26:11;98219.03;;;17.52;53.37
74680;BME280;63211;48.548;2.704;2023-01-16T02:31:48;98167.75;;;17.30;57.06
74680;BME280;63211;48.548;2.704;2023-01-16T02:34:34;98182.13;;;17.41;56.99
74680;BME280;63211;48.548;2.704;2023-01-16T02:37:13;98158.19;;;17.38;57.49
74680;BME280;63211;48.548;2.704;2023-01-16T02:39:48;98150.31;;;17.36;57.73
74680;BME280;63211;48.548;2.704;2023-01-16T02:42:24;98126.38;;;17.33;57.58
74680;BME280;63211;48.548;2.704;2023-01-16T02:44:59;98092.41;;;17.31;57.85
74680;BME280;63211;48.548;2.704;2023-01-16T02:47:30;98110.09;;;17.28;57.86
74680;BME280;63211;48.548;2.704;2023-01-16T02:50:07;98082.38;;;17.26;58.29
74680;BME280;63211;48.548;2.704;2023-01-16T02:52:40;98072.31;;;17.27;57.48
74680;BME280;63211;48.548;2.704;2023-01-16T02:55:16;98055.19;;;17.26;56.43
74680;BME280;63211;48.548;2.704;2023-01-16T02:57:48;98033.41;;;17.31;53.91
74680;BME280;63211;48.548;2.704;2023-01-16T03:00:17;98030.94;;;17.35;53.54
74680;BME280;63211;48.548;2.704;2023-01-16T03:02:46;98012.41;;;17.37;53.33
74680;BME280;63211;48.548;2.704;2023-01-16T03:05:13;98012.13;;;17.38;53.37
74680;BME280;63211;48.548;2.704;2023-01-16T03:07:55;97994.44;;;17.41;52.86
74680;BME280;63211;48.548;2.704;2023-01-16T03:10:42;97973.25;;;17.38;53.09
74680;BME280;63211;48.548;2.704;2023-01-16T03:13:18;97978.38;;;17.44;53.19
74680;BME280;63211;48.548;2.704;2023-01-16T03:15:52;97967.19;;;17.46;52.59
74680;BME280;63211;48.548;2.704;2023-01-16T03:18:34;97956.81;;;17.48;52.67
74680;BME280;63211;48.548;2.704;2023-01-16T03:21:08;97962.25;;;17.48;54.29
74680;BME280;63211;48.548;2.704;2023-01-16T03:23:48;97950.38;;;17.44;54.52
74680;BME280;63211;48.548;2.704;2023-01-16T03:26:22;97957.47;;;17.40;55.21
74680;BME280;63211;48.548;2.704;2023-01-16T03:28:57;97937.09;;;17.37;54.59
74680;BME280;63211;48.548;2.704;2023-01-16T03:31:29;97934.94;;;17.34;55.34
74680;BME280;63211;48.548;2.704;2023-01-16T03:34:05;97922.44;;;17.33;55.16
74680;BME280;63211;48.548;2.704;2023-01-16T03:36:42;97930.06;;;17.31;55.47
74680;BME280;63211;48.548;2.704;2023-01-16T03:39:13;97899.63;;;17.29;55.54
74680;BME280;63211;48.548;2.704;2023-01-16T03:41:43;97903.44;;;17.28;55.89
74680;BME280;63211;48.548;2.704;2023-01-16T03:44:14;97904.00;;;17.25;56.57
74680;BME280;63211;48.548;2.704;2023-01-16T03:46:48;97905.63;;;17.26;55.78
74680;BME280;63211;48.548;2.704;2023-01-16T03:49:18;97899.63;;;17.29;53.91
74680;BME280;63211;48.548;2.704;2023-01-16T03:51:48;97882.44;;;17.34;52.40
74680;BME280;63211;48.548;2.704;2023-01-16T03:54:23;97877.53;;;17.36;51.79
74680;BME280;63211;48.548;2.704;2023-01-16T03:56:55;97849.53;;;17.35;52.65
74680;BME280;63211;48.548;2.704;2023-01-16T03:59:25;97843.53;;;17.38;51.84
74680;BME280;63211;48.548;2.704;2023-01-16T04:01:55;97840.50;;;17.40;52.20
74680;BME280;63211;48.548;2.704;2023-01-16T04:04:27;97825.00;;;17.40;52.28
74680;BME280;63211;48.548;2.704;2023-01-16T04:06:59;97824.44;;;17.43;51.97
74680;BME280;63211;48.548;2.704;2023-01-16T04:09:34;97812.47;;;17.44;52.25
74680;BME280;63211;48.548;2.704;2023-01-16T04:12:03;97817.28;;;17.47;51.97
74680;BME280;63211;48.548;2.704;2023-01-16T04:14:33;97803.69;;;17.47;53.57
74680;BME280;63211;48.548;2.704;2023-01-16T04:17:02;97781.72;;;17.44;53.91
74680;BME280;63211;48.548;2.704;2023-01-16T04:19:32;97777.16;;;17.39;54.16
74680;BME280;63211;48.548;2.704;2023-01-16T04:21:59;97780.44;;;17.36;54.24
74680;BME280;63211;48.548;2.704;2023-01-16T04:24:30;97768.25;;;17.34;54.24
74680;BME280;63211;48.548;2.704;2023-01-16T04:26:57;97747.88;;;17.31;54.31
74680;BME280;63211;48.548;2.704;2023-01-16T04:29:24;97750.06;;;17.29;54.13
74680;BME280;63211;48.548;2.704;2023-01-16T04:31:51;97753.34;;;17.26;55.00
74680;BME280;63211;48.548;2.704;2023-01-16T04:34:17;97744.38;;;17.26;54.96
74680;BME280;63211;48.548;2.704;2023-01-16T04:36:45;97735.75;;;17.24;54.98
74680;BME280;63211;48.548;2.704;2023-01-16T04:39:12;97735.41;;;17.25;54.57
74680;BME280;63211;48.548;2.704;2023-01-16T04:41:39;97724.50;;;17.30;53.60
74680;BME280;63211;48.548;2.704;2023-01-16T04:44:08;97705.38;;;17.16;52.21
74680;BME280;63211;48.548;2.704;2023-01-16T04:46:35;97707.09;;;17.31;52.15
74680;BME280;63211;48.548;2.704;2023-01-16T04:49:03;97699.69;;;17.37;52.05
74680;BME280;63211;48.548;2.704;2023-01-16T04:51:30;97695.03;;;17.37;51.97
74680;BME280;63211;48.548;2.704;2023-01-16T04:53:58;97686.88;;;17.37;51.09
74680;BME280;63211;48.548;2.704;2023-01-16T04:56:25;97687.13;;;17.41;51.87
74680;BME280;63211;48.548;2.704;2023-01-16T04:58:51;97661.53;;;17.42;52.29
74680;BME280;63211;48.548;2.704;2023-01-16T05:01:19;97662.06;;;17.44;52.29
74680;BME280;63211;48.548;2.704;2023-01-16T05:03:45;97643.50;;;17.46;51.93
74680;BME280;63211;48.548;2.704;2023-01-16T05:06:12;97630.72;;;17.46;52.45
74680;BME280;63211;48.548;2.704;2023-01-16T05:08:39;97631.84;;;17.45;53.74
74680;BME280;63211;48.548;2.704;2023-01-16T05:11:07;97616.94;;;17.43;53.54
74680;BME280;63211;48.548;2.704;2023-01-16T05:13:34;97609.34;;;17.40;53.80
74680;BME280;63211;48.548;2.704;2023-01-16T05:16:01;97597.16;;;17.37;53.58
74680;BME280;63211;48.548;2.704;2023-01-16T05:18:28;97604.78;;;17.35;53.62
74680;BME280;63211;48.548;2.704;2023-01-16T05:20:55;97596.41;;;17.32;53.66
74680;BME280;63211;48.548;2.704;2023-01-16T05:23:21;97587.72;;;17.30;53.66
74680;BME280;63211;48.548;2.704;2023-01-16T05:25:48;97584.50;;;17.28;53.79
74680;BME280;63211;48.548;2.704;2023-01-16T05:28:16;97579.34;;;17.26;54.05
74680;BME280;63211;48.548;2.704;2023-01-16T05:30:43;97579.34;;;17.26;53.92
74680;BME280;63211;48.548;2.704;2023-01-16T05:33:09;97584.72;;;17.31;52.84
74680;BME280;63211;48.548;2.704;2023-01-16T05:35:36;97575.97;;;17.34;52.09
74680;BME280;63211;48.548;2.704;2023-01-16T05:38:02;97571.06;;;17.36;52.01
74680;BME280;63211;48.548;2.704;2023-01-16T05:40:29;97571.88;;;17.37;51.88
74680;BME280;63211;48.548;2.704;2023-01-16T05:42:56;97563.41;;;17.38;51.63
74680;BME280;63211;48.548;2.704;2023-01-16T05:45:24;97550.34;;;17.40;52.39
74680;BME280;63211;48.548;2.704;2023-01-16T05:47:51;97533.72;;;17.42;51.92
74680;BME280;63211;48.548;2.704;2023-01-16T05:50:18;97536.97;;;17.44;52.58
74680;BME280;63211;48.548;2.704;2023-01-16T05:52:45;97517.63;;;17.45;52.68
74680;BME280;63211;48.548;2.704;2023-01-16T05:55:11;97514.59;;;17.47;51.74
74680;BME280;63211;48.548;2.704;2023-01-16T05:57:38;97514.28;;;17.48;51.35
74680;BME280;63211;48.548;2.704;2023-01-16T06:00:06;97517.81;;;17.49;52.24
74680;BME280;63211;48.548;2.704;2023-01-16T06:02:34;97507.53;;;17.46;53.81
74680;BME280;63211;48.548;2.704;2023-01-16T06:05:02;97510.47;;;17.49;53.28
74680;BME280;63211;48.548;2.704;2023-01-16T06:07:28;97507.34;;;17.42;53.69
74680;BME280;63211;48.548;2.704;2023-01-16T06:09:55;97500.88;;;17.38;54.32
74680;BME280;63211;48.548;2.704;2023-01-16T06:12:22;97499.53;;;17.36;54.24
74680;BME280;63211;48.548;2.704;2023-01-16T06:14:48;97472.13;;;17.32;54.14
74680;BME280;63211;48.548;2.704;2023-01-16T06:17:15;97470.81;;;17.30;54.34
74680;BME280;63211;48.548;2.704;2023-01-16T06:19:45;97466.78;;;17.27;54.87
74680;BME280;63211;48.548;2.704;2023-01-16T06:22:12;97477.94;;;17.26;54.41
74680;BME280;63211;48.548;2.704;2023-01-16T06:24:39;97465.66;;;17.28;53.85
74680;BME280;63211;48.548;2.704;2023-01-16T06:27:05;97447.97;;;17.31;53.32
74680;BME280;63211;48.548;2.704;2023-01-16T06:29:32;97448.19;;;17.34;51.36
74680;BME280;63211;48.548;2.704;2023-01-16T06:31:59;97447.88;;;17.36;49.86
74680;BME280;63211;48.548;2.704;2023-01-16T06:34:26;97444.06;;;17.37;49.72
74680;BME280;63211;48.548;2.704;2023-01-16T06:36:54;97442.66;;;17.39;49.94
74680;BME280;63211;48.548;2.704;2023-01-16T06:39:21;97436.94;;;17.41;53.54
74680;BME280;63211;48.548;2.704;2023-01-16T06:41:47;97430.59;;;17.45;55.29
74680;BME280;63211;48.548;2.704;2023-01-16T06:44:14;97434.09;;;17.46;54.67
74680;BME280;63211;48.548;2.704;2023-01-16T06:46:40;97404.19;;;17.46;54.97
74680;BME280;63211;48.548;2.704;2023-01-16T06:49:09;97421.41;;;17.41;55.10
74680;BME280;63211;48.548;2.704;2023-01-16T06:51:36;97415.97;;;17.41;55.35
74680;BME280;63211;48.548;2.704;2023-01-16T06:54:04;97417.69;;;17.51;56.46
74680;BME280;63211;48.548;2.704;2023-01-16T06:56:30;97406.22;;;17.54;57.95
74680;BME280;63211;48.548;2.704;2023-01-16T06:58:57;97399.69;;;17.55;57.22
74680;BME280;63211;48.548;2.704;2023-01-16T07:01:23;97401.81;;;17.58;56.40
74680;BME280;63211;48.548;2.704;2023-01-16T07:03:50;97395.75;;;17.61;56.16
74680;BME280;63211;48.548;2.704;2023-01-16T07:06:17;97390.28;;;17.66;55.99
74680;BME280;63211;48.548;2.704;2023-01-16T07:08:44;97379.69;;;17.65;55.80
74680;BME280;63211;48.548;2.704;2023-01-16T07:11:13;97366.88;;;17.65;56.94
74680;BME280;63211;48.548;2.704;2023-01-16T07:13:39;97352.94;;;17.67;56.27
74680;BME280;63211;48.548;2.704;2023-01-16T07:16:08;97350.75;;;17.69;56.14
74680;BME280;63211;48.548;2.704;2023-01-16T07:18:53;97342.59;;;17.69;55.71
74680;BME280;63211;48.548;2.704;2023-01-16T07:21:39;97334.41;;;17.69;55.44
74680;BME280;63211;48.548;2.704;2023-01-16T07:24:27;97321.75;;;17.64;55.17
74680;BME280;63211;48.548;2.704;2023-01-16T07:26:59;97304.19;;;17.70;54.98
74680;BME280;63211;48.548;2.704;2023-01-16T07:29:30;97296.84;;;17.71;55.64
74680;BME280;63211;48.548;2.704;2023-01-16T07:31:58;97296.03;;;17.70;55.26
74680;BME280;63211;48.548;2.704;2023-01-16T07:34:26;97278.91;;;17.70;54.93
74680;BME280;63211;48.548;2.704;2023-01-16T07:36:52;97289.47;;;17.71;54.57
74680;BME280;63211;48.548;2.704;2023-01-16T07:39:19;97279.41;;;17.72;54.52
74680;BME280;63211;48.548;2.704;2023-01-16T07:41:46;97258.16;;;17.74;54.17
74680;BME280;63211;48.548;2.704;2023-01-16T07:44:17;97267.63;;;17.76;54.56
74680;BME280;63211;48.548;2.704;2023-01-16T07:46:43;97256.53;;;17.73;55.19
74680;BME280;63211;48.548;2.704;2023-01-16T07:49:10;97263.69;;;17.69;55.31
74680;BME280;63211;48.548;2.704;2023-01-16T07:51:36;97258.88;;;17.66;55.24
74680;BME280;63211;48.548;2.704;2023-01-16T07:54:05;97245.84;;;17.63;55.24
74680;BME280;63211;48.548;2.704;2023-01-16T07:56:33;97251.59;;;17.61;55.55
74680;BME280;63211;48.548;2.704;2023-01-16T07:58:59;97241.00;;;17.60;55.86
74680;BME280;63211;48.548;2.704;2023-01-16T08:01:27;97249.47;;;17.58;56.14
74680;BME280;63211;48.548;2.704;2023-01-16T08:03:54;97229.63;;;17.58;56.05
74680;BME280;63211;48.548;2.704;2023-01-16T08:06:21;97227.22;;;17.56;56.18
74680;BME280;63211;48.548;2.704;2023-01-16T08:08:47;97216.94;;;17.53;56.25
74680;BME280;63211;48.548;2.704;2023-01-16T08:11:14;97209.59;;;17.53;56.31
74680;BME280;63211;48.548;2.704;2023-01-16T08:13:58;97206.56;;;17.55;55.87
74680;BME280;63211;48.548;2.704;2023-01-16T08:16:25;97195.38;;;17.57;55.62
74680;BME280;63211;48.548;2.704;2023-01-16T08:18:52;97184.69;;;17.60;53.13
74680;BME280;63211;48.548;2.704;2023-01-16T08:21:19;97173.50;;;17.62;52.66
74680;BME280;63211;48.548;2.704;2023-01-16T08:23:46;97153.38;;;17.63;52.72
74680;BME280;63211;48.548;2.704;2023-01-16T08:26:13;97139.75;;;17.63;52.89
74680;BME280;63211;48.548;2.704;2023-01-16T08:28:40;97151.19;;;17.65;52.77
74680;BME280;63211;48.548;2.704;2023-01-16T08:31:08;97137.34;;;17.61;52.71
74680;BME280;63211;48.548;2.704;2023-01-16T08:33:37;97145.44;;;17.66;52.76
74680;BME280;63211;48.548;2.704;2023-01-16T08:36:07;97143.19;;;17.68;53.35
74680;BME280;63211;48.548;2.704;2023-01-16T08:38:34;97150.88;;;17.66;54.16
74680;BME280;63211;48.548;2.704;2023-01-16T08:41:01;97158.31;;;17.61;54.18
74680;BME280;63211;48.548;2.704;2023-01-16T08:43:28;97153.47;;;17.58;54.05
74680;BME280;63211;48.548;2.704;2023-01-16T08:46:16;97135.22;;;17.58;54.46
74680;BME280;63211;48.548;2.704;2023-01-16T08:49:02;97149.44;;;17.55;54.64
74680;BME280;63211;48.548;2.704;2023-01-16T08:51:48;97155.19;;;17.53;54.60
74680;BME280;63211;48.548;2.704;2023-01-16T08:54:15;97151.97;;;17.51;54.86
74680;BME280;63211;48.548;2.704;2023-01-16T08:56:42;97151.97;;;17.51;55.04
74680;BME280;63211;48.548;2.704;2023-01-16T08:59:08;97133.22;;;17.50;55.02
74680;BME280;63211;48.548;2.704;2023-01-16T09:01:36;97130.94;;;17.43;55.41
74680;BME280;63211;48.548;2.704;2023-01-16T09:04:04;97134.63;;;17.47;55.29
74680;BME280;63211;48.548;2.704;2023-01-16T09:06:30;97128.91;;;17.49;55.28
74680;BME280;63211;48.548;2.704;2023-01-16T09:08:58;97111.97;;;17.52;54.44
74680;BME280;63211;48.548;2.704;2023-01-16T09:11:25;97095.84;;;17.56;53.79
74680;BME280;63211;48.548;2.704;2023-01-16T09:14:09;97092.81;;;17.57;52.33
74680;BME280;63211;48.548;2.704;2023-01-16T09:16:36;97079.22;;;17.57;52.11
74680;BME280;63211;48.548;2.704;2023-01-16T09:19:02;97075.09;;;17.60;52.26
74680;BME280;63211;48.548;2.704;2023-01-16T09:21:29;97064.22;;;17.60;52.05
74680;BME280;63211;48.548;2.704;2023-01-16T09:23:56;97053.34;;;17.60;52.03
74680;BME280;63211;48.548;2.704;2023-01-16T09:26:24;97064.72;;;17.62;52.27
74680;BME280;63211;48.548;2.704;2023-01-16T09:28:50;97052.13;;;17.66;53.14
74680;BME280;63211;48.548;2.704;2023-01-16T09:31:17;97056.44;;;17.67;53.55
74680;BME280;63211;48.548;2.704;2023-01-16T09:33:45;97067.19;;;17.72;53.28
74680;BME280;63211;48.548;2.704;2023-01-16T09:36:12;97064.66;;;17.75;53.84
74680;BME280;63211;48.548;2.704;2023-01-16T09:38:39;97063.25;;;17.78;52.89
74680;BME280;63211;48.548;2.704;2023-01-16T09:41:09;97068.06;;;17.81;52.61
74680;BME280;63211;48.548;2.704;2023-01-16T09:44:02;97093.50;;;17.76;54.50
74680;BME280;63211;48.548;2.704;2023-01-16T09:46:33;97109.63;;;17.73;54.55
74680;BME280;63211;48.548;2.704;2023-01-16T09:49:04;97111.84;;;17.71;54.36
74680;BME280;63211;48.548;2.704;2023-01-16T09:51:36;97109.44;;;17.56;54.55
74680;BME280;63211;48.548;2.704;2023-01-16T09:54:10;97146.09;;;17.72;54.47
74680;BME280;63211;48.548;2.704;2023-01-16T09:56:57;97155.38;;;17.71;54.57
74680;BME280;63211;48.548;2.704;2023-01-16T09:59:47;97179.25;;;17.74;52.65
74680;BME280;63211;48.548;2.704;2023-01-16T10:02:20;97188.91;;;17.80;52.48
74680;BME280;63211;48.548;2.704;2023-01-16T10:04:47;97200.00;;;17.83;51.92
74680;BME280;63211;48.548;2.704;2023-01-16T10:07:34;97205.63;;;17.87;52.04
74680;BME280;63211;48.548;2.704;2023-01-16T10:10:13;97226.75;;;17.90;51.74
74680;BME280;63211;48.548;2.704;2023-01-16T10:12:58;97233.22;;;17.94;51.68
74680;BME280;63211;48.548;2.704;2023-01-16T10:15:35;97248.94;;;17.97;51.39
74680;BME280;63211;48.548;2.704;2023-01-16T10:18:16;97258.09;;;18.01;51.61
74680;BME280;63211;48.548;2.704;2023-01-16T10:21:11;97271.09;;;18.04;51.45
74680;BME280;63211;48.548;2.704;2023-01-16T10:23:51;97279.28;;;18.04;51.65
74680;BME280;63211;48.548;2.704;2023-01-16T10:26:24;97292.28;;;18.07;51.64
74680;BME280;63211;48.548;2.704;2023-01-16T10:28:59;97300.91;;;18.09;51.45
74680;BME280;63211;48.548;2.704;2023-01-16T10:31:32;97307.47;;;18.08;50.74
74680;BME280;63211;48.548;2.704;2023-01-16T10:34:03;97330.69;;;18.06;53.63
74680;BME280;63211;48.548;2.704;2023-01-16T10:36:33;97335.72;;;17.99;53.68
74680;BME280;63211;48.548;2.704;2023-01-16T10:39:02;97346.31;;;18.00;52.19
74680;BME280;63211;48.548;2.704;2023-01-16T10:41:32;97345.00;;;17.98;53.11
74680;BME280;63211;48.548;2.704;2023-01-16T10:44:25;97348.03;;;17.96;51.79
74680;BME280;63211;48.548;2.704;2023-01-16T10:47:13;97358.91;;;17.96;52.33
74680;BME280;63211;48.548;2.704;2023-01-16T10:49:58;97373.31;;;17.97;52.04
74680;BME280;63211;48.548;2.704;2023-01-16T10:52:25;97386.72;;;17.93;51.80
74680;BME280;63211;48.548;2.704;2023-01-16T10:54:54;97387.22;;;17.95;52.59
74680;BME280;63211;48.548;2.704;2023-01-16T10:57:21;97395.41;;;17.95;51.99
74680;BME280;63211;48.548;2.704;2023-01-16T10:59:50;97418.78;;;17.96;51.56
74680;BME280;63211;48.548;2.704;2023-01-16T11:02:27;97425.03;;;17.97;51.83
74680;BME280;63211;48.548;2.704;2023-01-16T11:04:54;97431.28;;;17.97;51.88
74680;BME280;63211;48.548;2.704;2023-01-16T11:07:22;97429.69;;;17.96;51.51
74680;BME280;63211;48.548;2.704;2023-01-16T11:09:51;97451.44;;;17.96;51.81
74680;BME280;63211;48.548;2.704;2023-01-16T11:12:23;97454.69;;;17.98;51.41
74680;BME280;63211;48.548;2.704;2023-01-16T11:15:15;97468.28;;;17.98;51.86
74680;BME280;63211;48.548;2.704;2023-01-16T11:18:01;97495.50;;;17.98;51.71
74680;BME280;63211;48.548;2.704;2023-01-16T11:20:46;97493.91;;;17.97;51.42
74680;BME280;63211;48.548;2.704;2023-01-16T11:23:18;97504.78;;;17.97;51.97
74680;BME280;63211;48.548;2.704;2023-01-16T11:25:46;97502.66;;;17.94;51.77
74680;BME280;63211;48.548;2.704;2023-01-16T11:28:18;97521.19;;;17.92;51.69
74680;BME280;63211;48.548;2.704;2023-01-16T11:30:47;97522.00;;;17.93;51.88
74680;BME280;63211;48.548;2.704;2023-01-16T11:33:19;97537.00;;;17.90;51.54
74680;BME280;63211;48.548;2.704;2023-01-16T11:35:51;97536.50;;;17.88;51.88
74680;BME280;63211;48.548;2.704;2023-01-16T11:38:21;97548.53;;;17.87;52.27
74680;BME280;63211;48.548;2.704;2023-01-16T11:40:49;97553.47;;;17.85;52.06
74680;BME280;63211;48.548;2.704;2023-01-16T11:43:18;97563.81;;;17.83;52.20
74680;BME280;63211;48.548;2.704;2023-01-16T11:46:07;97571.56;;;17.76;52.17
74680;BME280;63211;48.548;2.704;2023-01-16T11:48:43;97575.31;;;17.80;52.38
74680;BME280;63211;48.548;2.704;2023-01-16T11:51:15;97594.34;;;17.80;52.58
74680;BME280;63211;48.548;2.704;2023-01-16T11:53:44;97611.50;;;17.80;51.75
74680;BME280;63211;48.548;2.704;2023-01-16T11:59:33;97625.91;;;17.81;51.75
74680;BME280;63211;48.548;2.704;2023-01-16T12:02:13;97639.22;;;17.82;52.14
74680;BME280;63211;48.548;2.704;2023-01-16T12:04:50;97652.00;;;17.82;51.96
74680;BME280;63211;48.548;2.704;2023-01-16T12:07:45;97648.19;;;17.83;51.87
74680;BME280;63211;48.548;2.704;2023-01-16T12:10:25;97666.66;;;17.86;51.56
74680;BME280;63211;48.548;2.704;2023-01-16T12:12:59;97669.56;;;17.90;51.17
74680;BME280;63211;48.548;2.704;2023-01-16T12:15:56;97676.63;;;17.91;51.21
74680;BME280;63211;48.548;2.704;2023-01-16T12:18:33;97680.69;;;17.93;51.21
74680;BME280;63211;48.548;2.704;2023-01-16T12:21:03;97692.88;;;17.96;51.52
74680;BME280;63211;48.548;2.704;2023-01-16T12:23:55;97706.50;;;17.96;51.78
74680;BME280;63211;48.548;2.704;2023-01-16T12:26:29;97705.16;;;17.93;51.99
74680;BME280;63211;48.548;2.704;2023-01-16T12:29:05;97710.91;;;17.92;52.09
74680;BME280;63211;48.548;2.704;2023-01-16T12:31:46;97708.47;;;17.90;51.78
74680;BME280;63211;48.548;2.704;2023-01-16T12:34:30;97725.91;;;17.89;51.66
74680;BME280;63211;48.548;2.704;2023-01-16T12:37:24;97729.44;;;17.90;52.30
74680;BME280;63211;48.548;2.704;2023-01-16T12:39:59;97739.81;;;17.88;51.86
74680;BME280;63211;48.548;2.704;2023-01-16T12:42:38;97735.50;;;17.87;52.83
74680;BME280;63211;48.548;2.704;2023-01-16T12:45:37;97749.09;;;17.87;50.89
74680;BME280;63211;48.548;2.704;2023-01-16T12:48:23;97760.19;;;17.90;51.87
74680;BME280;63211;48.548;2.704;2023-01-16T12:51:02;97764.53;;;17.91;51.26
74680;BME280;63211;48.548;2.704;2023-01-16T12:53:55;97771.59;;;17.92;50.76
74680;BME280;63211;48.548;2.704;2023-01-16T12:56:37;97778.66;;;17.93;51.60
74680;BME280;63211;48.548;2.704;2023-01-16T12:59:17;97790.38;;;17.94;51.18
74680;BME280;63211;48.548;2.704;2023-01-16T13:01:46;97798.25;;;17.95;51.31
74680;BME280;63211;48.548;2.704;2023-01-16T13:04:19;97814.28;;;17.97;50.85
74680;BME280;63211;48.548;2.704;2023-01-16T13:06:49;97818.91;;;17.96;50.93
74680;BME280;63211;48.548;2.704;2023-01-16T13:09:22;97825.97;;;17.97;51.21
74680;BME280;63211;48.548;2.704;2023-01-16T13:12:01;97827.38;;;17.95;50.31
74680;BME280;63211;48.548;2.704;2023-01-16T13:14:49;97838.25;;;17.95;50.97
74680;BME280;63211;48.548;2.704;2023-01-16T13:17:22;97844.50;;;17.95;51.63
74680;BME280;63211;48.548;2.704;2023-01-16T13:19:51;97845.84;;;17.98;50.95
74680;BME280;63211;48.548;2.704;2023-01-16T13:22:21;97851.53;;;18.01;51.83
74680;BME280;63211;48.548;2.704;2023-01-16T13:24:55;97859.69;;;18.01;51.27
74680;BME280;63211;48.548;2.704;2023-01-16T13:27:28;97878.44;;;18.03;51.15
74680;BME280;63211;48.548;2.704;2023-01-16T13:30:01;97882.22;;;18.07;51.59
74680;BME280;63211;48.548;2.704;2023-01-16T13:32:31;97879.19;;;18.08;51.88
74680;BME280;63211;48.548;2.704;2023-01-16T13:35:04;97887.06;;;18.10;51.68